Capitol Logistics 316


KRFD
Chicago/Rockford International Airport
Rockford, Illinois, US
PANC
Ted Stevens Anchorage International Airport
Anchorage, Alaska, US

Route Details

Aircraft Information
Primary: Boeing 767-300BDSF
Backup: Not Available
Route Data
Distance: 2468nm
Sched. Duration: 6h 00m
Avg. Duration: 6h 19m (+20m)
Times Flown: 10
Recm'd Route: ODI J36 GEP MOT J483 VLN J475 YWV NCA11 REMBY WITTI4
Planned Altitude: 34,000ft
Origin Wx: KRFD 231254Z 21005KT 10SM CLR 03/M04 A2995 RMK AO2 SLP148 T00281039
Dest. Wx: PANC 231253Z 36013KT 10SM OVC039 M11/M16 A2996 RMK AO2 SLP148 T11061161 $
Notes:

Financial History
Total Freight: 889,941lbs
Average Load: 88,994lbs/flt
Fuel Used: 708,315lbs
Avg. Fuel Used: 70,832lbs/flt
Fuel Expense: $503,836
Avg. Fuel Expense: $50,384
Avg. Fuel Cost: $0.71/lbs
Total Gross Income: $1,795,790
Pilot Pay: $1,520
Total Expenses: $197,004
Total Revenue: $1,082,545
Average Revenue: $179,579.04